UPS9112 MMPR-KSDF
Flight info
| Callsign | UPS9112 |
|---|---|
| Flight time | N/A |
| Altitude | 35000 |
| Route | ENEMI UJ37 TNY UT1 KATLA J29 CRP J22 PSX J29 MEM BUMPY MBELL5 |
| Aircraft | MD11/H-SDE1E2E3FGHIJ2J3J4J5M1RWXY/LB1D1 |
Departure
| Time | 2026-04-30 18:28 |
|---|---|
| Airport | Puerto Vallarta International Airport (MMPR) |
Arrival
| Time | N/A |
|---|---|
| Airport | Louisville Muhammad Ali International Airport (KSDF) |
| Time | Latitude | Longitude | Altitude | Speed | Heading |
|---|---|---|---|---|---|
| 2026-04-30 18:01 | 20.68204 | -105.24804 | 36 ft | 0 kts | 137° |
| 2026-04-30 18:17 | 20.68211 | -105.24811 | 35 ft | 4 kts | 137° |
| 2026-04-30 18:18 | 20.68231 | -105.24830 | 36 ft | 4 kts | 138° |
| 2026-04-30 18:18 | 20.68249 | -105.24847 | 35 ft | 4 kts | 127° |
| 2026-04-30 18:18 | 20.68258 | -105.24864 | 34 ft | 4 kts | 79° |
| 2026-04-30 18:18 | 20.68249 | -105.24885 | 32 ft | 4 kts | 45° |
| 2026-04-30 18:19 | 20.68238 | -105.24896 | 33 ft | 0 kts | 46° |
| 2026-04-30 18:21 | 20.68249 | -105.24884 | 32 ft | 5 kts | 47° |
| 2026-04-30 18:22 | 20.68290 | -105.24837 | 36 ft | 11 kts | 47° |
| 2026-04-30 18:22 | 20.68430 | -105.24675 | 35 ft | 17 kts | 47° |
| 2026-04-30 18:22 | 20.68508 | -105.24585 | 37 ft | 16 kts | 47° |
| 2026-04-30 18:23 | 20.68591 | -105.24489 | 36 ft | 19 kts | 47° |
| 2026-04-30 18:23 | 20.68678 | -105.24390 | 37 ft | 17 kts | 47° |
| 2026-04-30 18:23 | 20.68752 | -105.24304 | 37 ft | 13 kts | 47° |
| 2026-04-30 18:23 | 20.68816 | -105.24260 | 37 ft | 9 kts | 7° |
| 2026-04-30 18:24 | 20.68861 | -105.24280 | 37 ft | 0 kts | 322° |
| 2026-04-30 18:26 | 20.68867 | -105.24285 | 37 ft | 3 kts | 322° |
| 2026-04-30 18:27 | 20.68918 | -105.24347 | 37 ft | 3 kts | 283° |
| 2026-04-30 18:27 | 20.68909 | -105.24379 | 36 ft | 8 kts | 242° |
| 2026-04-30 18:28 | 20.68406 | -105.24960 | 35 ft | 98 kts | 226° |
| 2026-04-30 18:28 | 20.67841 | -105.25609 | 35 ft | 141 kts | 227° |
| 2026-04-30 18:28 | 20.66177 | -105.27283 | 886 ft | 173 kts | 212° |
| 2026-04-30 18:29 | 20.65161 | -105.27929 | 1676 ft | 169 kts | 210° |
| 2026-04-30 18:29 | 20.61890 | -105.29898 | 3439 ft | 199 kts | 211° |
| 2026-04-30 18:30 | 20.59667 | -105.31344 | 3755 ft | 249 kts | 219° |
| 2026-04-30 18:30 | 20.58417 | -105.35513 | 5045 ft | 277 kts | 285° |
| 2026-04-30 18:31 | 20.59081 | -105.37453 | 5891 ft | 281 kts | 295° |
| 2026-04-30 18:31 | 20.61534 | -105.40577 | 7552 ft | 281 kts | 337° |
| 2026-04-30 18:32 | 20.65338 | -105.40541 | 9184 ft | 287 kts | 26° |
| 2026-04-30 18:32 | 20.67021 | -105.39358 | 9931 ft | 293 kts | 36° |
| 2026-04-30 18:32 | 20.70415 | -105.36366 | 10373 ft | 343 kts | 38° |
| 2026-04-30 18:33 | 20.72291 | -105.34703 | 10683 ft | 362 kts | 38° |
| 2026-04-30 18:33 | 20.76257 | -105.31254 | 12108 ft | 373 kts | 38° |
| 2026-04-30 18:33 | 20.78299 | -105.29505 | 12765 ft | 380 kts | 38° |
| 2026-04-30 18:34 | 20.80389 | -105.27722 | 13429 ft | 387 kts | 39° |
| 2026-04-30 18:34 | 20.84662 | -105.24090 | 14626 ft | 397 kts | 38° |
| 2026-04-30 18:34 | 20.86840 | -105.22242 | 15217 ft | 402 kts | 38° |
| 2026-04-30 18:35 | 20.89040 | -105.20374 | 15789 ft | 406 kts | 38° |
| 2026-04-30 18:35 | 20.91265 | -105.18486 | 16370 ft | 410 kts | 38° |
| 2026-04-30 18:35 | 20.93508 | -105.16581 | 16913 ft | 414 kts | 38° |
| 2026-04-30 18:36 | 20.98076 | -105.12700 | 18039 ft | 423 kts | 38° |
| 2026-04-30 18:36 | 21.00386 | -105.10738 | 18528 ft | 426 kts | 37° |
| 2026-04-30 18:36 | 21.05037 | -105.06782 | 19418 ft | 433 kts | 37° |
| 2026-04-30 18:37 | 21.07406 | -105.04766 | 19869 ft | 436 kts | 37° |
| 2026-04-30 18:37 | 21.09789 | -105.02737 | 20306 ft | 439 kts | 37° |
| 2026-04-30 18:37 | 21.12214 | -105.00727 | 20700 ft | 443 kts | 33° |
| 2026-04-30 18:37 | 21.14829 | -104.98967 | 21153 ft | 445 kts | 28° |
| 2026-04-30 18:38 | 21.16634 | -104.97906 | 21478 ft | 447 kts | 26° |
| 2026-04-30 18:38 | 21.19414 | -104.96376 | 21933 ft | 451 kts | 25° |
| 2026-04-30 18:38 | 21.22224 | -104.94874 | 22410 ft | 454 kts | 25° |
| 2026-04-30 18:38 | 21.25065 | -104.93355 | 22865 ft | 458 kts | 25° |
| 2026-04-30 18:39 | 21.27922 | -104.91813 | 23333 ft | 461 kts | 25° |
| 2026-04-30 18:39 | 21.30793 | -104.90245 | 23796 ft | 465 kts | 25° |
| 2026-04-30 18:39 | 21.33680 | -104.88659 | 24226 ft | 467 kts | 25° |
| 2026-04-30 18:39 | 21.36578 | -104.87059 | 24645 ft | 470 kts | 25° |
| 2026-04-30 18:40 | 21.39496 | -104.85444 | 25072 ft | 473 kts | 25° |
| 2026-04-30 18:40 | 21.42425 | -104.83814 | 25496 ft | 476 kts | 26° |
| 2026-04-30 18:40 | 21.45360 | -104.82149 | 25938 ft | 479 kts | 26° |
| 2026-04-30 18:40 | 21.48277 | -104.80472 | 26370 ft | 482 kts | 26° |
| 2026-04-30 18:41 | 21.51241 | -104.78758 | 26762 ft | 485 kts | 26° |
| 2026-04-30 18:41 | 21.54222 | -104.77033 | 27164 ft | 488 kts | 26° |
| 2026-04-30 18:41 | 21.57223 | -104.75299 | 27560 ft | 491 kts | 26° |
| 2026-04-30 18:41 | 21.60217 | -104.73571 | 27950 ft | 494 kts | 26° |
| 2026-04-30 18:42 | 21.63297 | -104.71796 | 28337 ft | 498 kts | 26° |
| 2026-04-30 18:42 | 21.69396 | -104.68276 | 29096 ft | 504 kts | 26° |
| 2026-04-30 18:42 | 21.72482 | -104.66493 | 29454 ft | 507 kts | 26° |
| 2026-04-30 18:45 | 22.03519 | -104.48508 | 33435 ft | 499 kts | 25° |
| 2026-04-30 18:45 | 22.06579 | -104.46732 | 33825 ft | 497 kts | 25° |
| 2026-04-30 18:45 | 22.09590 | -104.44982 | 34164 ft | 495 kts | 25° |
| 2026-04-30 18:46 | 22.12613 | -104.43224 | 34502 ft | 493 kts | 25° |
| 2026-04-30 18:46 | 22.15633 | -104.41467 | 34758 ft | 493 kts | 25° |
| 2026-04-30 18:46 | 22.18665 | -104.39704 | 34824 ft | 495 kts | 25° |
| 2026-04-30 18:47 | 22.24745 | -104.36164 | 34838 ft | 496 kts | 25° |
| 2026-04-30 18:47 | 22.30822 | -104.32622 | 34836 ft | 496 kts | 25° |
| 2026-04-30 18:48 | 22.36863 | -104.29096 | 34837 ft | 496 kts | 25° |
| 2026-04-30 18:48 | 22.42943 | -104.25543 | 34835 ft | 496 kts | 25° |
| 2026-04-30 18:49 | 22.49027 | -104.21979 | 34834 ft | 497 kts | 25° |
| 2026-04-30 18:49 | 22.55112 | -104.18416 | 34836 ft | 497 kts | 25° |
| 2026-04-30 18:50 | 22.61216 | -104.14841 | 34834 ft | 498 kts | 25° |
| 2026-04-30 18:50 | 22.67314 | -104.11267 | 34835 ft | 499 kts | 25° |
| 2026-04-30 18:51 | 22.73375 | -104.07711 | 34836 ft | 498 kts | 25° |
| 2026-04-30 18:51 | 22.79461 | -104.04133 | 34833 ft | 498 kts | 25° |
| 2026-04-30 18:52 | 22.85544 | -104.00545 | 34839 ft | 498 kts | 25° |
| 2026-04-30 18:52 | 22.91634 | -103.96948 | 34841 ft | 498 kts | 25° |
| 2026-04-30 18:53 | 22.97714 | -103.93358 | 34845 ft | 497 kts | 25° |
| 2026-04-30 18:53 | 23.03801 | -103.89763 | 34855 ft | 498 kts | 25° |
| 2026-04-30 18:54 | 23.09880 | -103.86175 | 34859 ft | 497 kts | 25° |
| 2026-04-30 18:54 | 23.15924 | -103.82607 | 34862 ft | 498 kts | 25° |
| 2026-04-30 18:55 | 23.22013 | -103.79000 | 34858 ft | 497 kts | 25° |
| 2026-04-30 18:55 | 23.31127 | -103.73598 | 34859 ft | 497 kts | 25° |
| 2026-04-30 18:56 | 23.40248 | -103.68182 | 34865 ft | 498 kts | 25° |
| 2026-04-30 18:57 | 23.49376 | -103.62751 | 34859 ft | 498 kts | 25° |
| 2026-04-30 18:57 | 23.55465 | -103.59125 | 34862 ft | 499 kts | 25° |
| 2026-04-30 18:58 | 23.64558 | -103.53702 | 34855 ft | 499 kts | 25° |
| 2026-04-30 18:59 | 23.73740 | -103.48224 | 34850 ft | 499 kts | 25° |
| 2026-04-30 19:00 | 23.85901 | -103.40955 | 34849 ft | 499 kts | 25° |
| 2026-04-30 19:01 | 23.98102 | -103.33647 | 34838 ft | 501 kts | 24° |
| 2026-04-30 19:02 | 24.07278 | -103.28127 | 34823 ft | 502 kts | 25° |
| 2026-04-30 19:03 | 24.19477 | -103.20749 | 34812 ft | 502 kts | 24° |
| 2026-04-30 19:04 | 24.31698 | -103.13335 | 34812 ft | 502 kts | 24° |
| 2026-04-30 19:05 | 24.43880 | -103.05935 | 34794 ft | 502 kts | 24° |
| 2026-04-30 19:06 | 24.56094 | -102.98498 | 34782 ft | 501 kts | 24° |
| 2026-04-30 19:06 | 24.65238 | -102.92916 | 34774 ft | 501 kts | 24° |
| 2026-04-30 19:07 | 24.74381 | -102.87327 | 34772 ft | 501 kts | 24° |
| 2026-04-30 19:08 | 24.80179 | -102.83104 | 34772 ft | 509 kts | 38° |
| 2026-04-30 19:08 | 24.84639 | -102.76959 | 34772 ft | 520 kts | 59° |
| 2026-04-30 19:09 | 24.88609 | -102.65755 | 34770 ft | 526 kts | 68° |
| 2026-04-30 19:09 | 24.91224 | -102.58236 | 34773 ft | 525 kts | 65° |
| 2026-04-30 19:10 | 24.96942 | -102.43475 | 34774 ft | 525 kts | 64° |
| 2026-04-30 19:11 | 25.01292 | -102.32369 | 34771 ft | 526 kts | 64° |
| 2026-04-30 19:12 | 25.04176 | -102.24961 | 34773 ft | 526 kts | 64° |
| 2026-04-30 19:12 | 25.07058 | -102.17538 | 34777 ft | 526 kts | 64° |
| 2026-04-30 19:13 | 25.12795 | -102.02730 | 34781 ft | 526 kts | 64° |
| 2026-04-30 19:14 | 25.15668 | -101.95297 | 34785 ft | 526 kts | 65° |
| 2026-04-30 19:14 | 25.18534 | -101.87865 | 34794 ft | 525 kts | 65° |
| 2026-04-30 19:15 | 25.21394 | -101.80433 | 34803 ft | 525 kts | 65° |
| 2026-04-30 19:15 | 25.25616 | -101.69336 | 34818 ft | 525 kts | 65° |
| 2026-04-30 19:16 | 25.28467 | -101.61837 | 34829 ft | 525 kts | 65° |
| 2026-04-30 19:17 | 25.32692 | -101.50726 | 34841 ft | 525 kts | 65° |
| 2026-04-30 19:17 | 25.36926 | -101.39555 | 34849 ft | 525 kts | 65° |
| 2026-04-30 19:18 | 25.41156 | -101.28379 | 34866 ft | 525 kts | 65° |
| 2026-04-30 19:19 | 25.43971 | -101.20920 | 34911 ft | 525 kts | 65° |
| 2026-04-30 19:19 | 25.48190 | -101.09714 | 34979 ft | 525 kts | 65° |
| 2026-04-30 19:20 | 25.50998 | -101.02237 | 35030 ft | 525 kts | 65° |
| 2026-04-30 19:21 | 25.55178 | -100.91017 | 35026 ft | 526 kts | 67° |
| 2026-04-30 19:22 | 25.59585 | -100.75564 | 34984 ft | 528 kts | 72° |
| 2026-04-30 19:23 | 25.65926 | -100.52096 | 34861 ft | 531 kts | 71° |
| 2026-04-30 19:24 | 25.69120 | -100.40350 | 34863 ft | 531 kts | 71° |
| 2026-04-30 19:25 | 25.74401 | -100.20810 | 34877 ft | 530 kts | 71° |
| 2026-04-30 19:26 | 25.79386 | -100.07051 | 34878 ft | 520 kts | 49° |
| 2026-04-30 19:27 | 25.86816 | -99.98423 | 34867 ft | 515 kts | 40° |
| 2026-04-30 19:28 | 25.94298 | -99.89812 | 34840 ft | 517 kts | 43° |
| 2026-04-30 19:29 | 26.03961 | -99.77966 | 34815 ft | 517 kts | 43° |
| 2026-04-30 19:30 | 26.13623 | -99.66175 | 34814 ft | 517 kts | 43° |
| 2026-04-30 19:31 | 26.23333 | -99.54306 | 34808 ft | 518 kts | 43° |
| 2026-04-30 19:31 | 26.30603 | -99.45393 | 34809 ft | 518 kts | 43° |
| 2026-04-30 19:32 | 26.35417 | -99.39479 | 34809 ft | 518 kts | 44° |
| 2026-04-30 19:32 | 26.40266 | -99.33515 | 34813 ft | 519 kts | 43° |
| 2026-04-30 19:33 | 26.45153 | -99.27581 | 34810 ft | 518 kts | 41° |
| 2026-04-30 19:33 | 26.50180 | -99.21795 | 34808 ft | 518 kts | 41° |
| 2026-04-30 19:34 | 26.55215 | -99.16012 | 34816 ft | 521 kts | 42° |
| 2026-04-30 19:35 | 26.62514 | -99.06981 | 34814 ft | 522 kts | 44° |
| 2026-04-30 19:35 | 26.67319 | -99.00945 | 34817 ft | 523 kts | 44° |
| 2026-04-30 19:36 | 26.72167 | -98.94880 | 34815 ft | 523 kts | 44° |
| 2026-04-30 19:36 | 26.79375 | -98.85856 | 34816 ft | 505 kts | 44° |
| 2026-04-30 19:37 | 26.81689 | -98.82948 | 34820 ft | 493 kts | 43° |
| 2026-04-30 19:37 | 26.83946 | -98.80113 | 34806 ft | 481 kts | 43° |
| 2026-04-30 19:37 | 26.86145 | -98.77352 | 34828 ft | 470 kts | 43° |
| 2026-04-30 19:37 | 26.88301 | -98.74647 | 34827 ft | 458 kts | 42° |
| 2026-04-30 19:38 | 26.90397 | -98.72017 | 34824 ft | 447 kts | 43° |
| 2026-04-30 19:38 | 26.92443 | -98.69448 | 34786 ft | 438 kts | 42° |
| 2026-04-30 19:38 | 26.94478 | -98.66898 | 34367 ft | 441 kts | 42° |
| 2026-04-30 19:38 | 26.96505 | -98.64360 | 33914 ft | 444 kts | 42° |
| 2026-04-30 19:39 | 26.98570 | -98.61770 | 33415 ft | 447 kts | 43° |
| 2026-04-30 19:39 | 27.00654 | -98.59151 | 32867 ft | 451 kts | 43° |
| 2026-04-30 19:39 | 27.02747 | -98.56516 | 32486 ft | 451 kts | 43° |
| 2026-04-30 19:39 | 27.04822 | -98.53896 | 32250 ft | 447 kts | 43° |
| 2026-04-30 19:40 | 27.06886 | -98.51287 | 31996 ft | 444 kts | 43° |
| 2026-04-30 19:40 | 27.08933 | -98.48699 | 31761 ft | 441 kts | 43° |
| 2026-04-30 19:40 | 27.10958 | -98.46131 | 31516 ft | 438 kts | 43° |
| 2026-04-30 19:40 | 27.12974 | -98.43568 | 31276 ft | 436 kts | 43° |
| 2026-04-30 19:41 | 27.14976 | -98.41026 | 31029 ft | 434 kts | 43° |
| 2026-04-30 19:41 | 27.16968 | -98.38499 | 30858 ft | 430 kts | 43° |
| 2026-04-30 19:41 | 27.20862 | -98.33558 | 30803 ft | 415 kts | 43° |